Sivas Airport Sivas TR
ICAO: LTAR
IATA: VAS
Category: Medium
Scheduled Services: Yes

Elevation: 5236 ft
TransAlt. 12000 ft.

Airport Communications:
GND:121.9
TWR:118.1

LTAR Zoom In..

If you have problems with the map follow the link
https://www.worldairports.se/pages/airport.php?
ICAO=LTAR

Runways:

(A) RW 01 length 12503 ft width 148 ft
ILS 109.10 / hdg 13

(B) RW 19 length 12503 ft width 148 ft
---- / hdg 193

Location; LTAR
Day. 22 / Time. 11.50 Zulu
* QNH: 1015
* Temperature: 04° c. 39.2°f.
* Wind from: 280° Speed 10 kn.
Dewpoint: -05° c.
Visibility: 10 km or more.
Clouds: Broken 3500 ft.

LTAR 221150Z 28010KT 250V310 9999 BKN035 04/M05 Q1015


Wind From 280°
Speed 10 kn.

 
 
jpsmedia.com for Web Design worldairports.se 2019   terms of use